createdAt,value
2023-01-29T00:02:06.663Z,10.68
2023-01-29T00:04:33.437Z,9.32
2023-01-29T00:07:00.244Z,11.25
2023-01-29T00:09:28.223Z,9.25
2023-01-29T00:11:54.998Z,12.73
2023-01-29T00:14:21.816Z,8.07
2023-01-29T00:16:48.678Z,11.38
2023-01-29T00:19:15.431Z,9.88
2023-01-29T00:21:42.110Z,11.85
2023-01-29T00:24:08.881Z,10.57
2023-01-29T00:26:35.689Z,9.77
2023-01-29T00:29:02.721Z,9.15
2023-01-29T00:31:29.855Z,10.15
2023-01-29T00:33:57.230Z,9.32
2023-01-29T00:36:25.454Z,12.15
2023-01-29T00:39:00.597Z,9.20
2023-01-29T00:41:48.970Z,9.57
2023-01-29T00:44:34.461Z,8.45
2023-01-29T00:47:01.718Z,9.10
2023-01-29T00:49:30.242Z,9.00
2023-01-29T00:52:15.493Z,6.93
2023-01-29T00:54:42.217Z,8.10
2023-01-29T00:57:09.041Z,10.23
2023-01-29T00:59:35.778Z,7.55
2023-01-29T01:02:21.185Z,10.23
2023-01-29T01:04:47.951Z,8.65
2023-01-29T01:07:14.705Z,7.32
2023-01-29T01:09:59.890Z,10.25
2023-01-29T01:12:27.710Z,8.38
2023-01-29T01:14:54.476Z,8.35
2023-01-29T01:17:21.238Z,8.05
2023-01-29T01:19:48.018Z,9.95
2023-01-29T01:22:14.750Z,9.13
2023-01-29T01:24:41.502Z,9.75
2023-01-29T01:27:08.457Z,8.32
2023-01-29T01:29:35.223Z,11.95
2023-01-29T01:32:02.359Z,8.27
2023-01-29T01:34:29.300Z,10.57
2023-01-29T01:36:56.461Z,8.35
2023-01-29T01:39:24.486Z,9.10
2023-01-29T01:41:55.336Z,9.95
2023-01-29T01:45:01.359Z,9.82
2023-01-29T01:47:46.786Z,9.85
2023-01-29T01:50:22.651Z,9.15
2023-01-29T01:52:53.093Z,11.25
2023-01-29T01:55:23.070Z,13.15
2023-01-29T01:57:54.869Z,12.07
2023-01-29T02:00:22.124Z,10.95
2023-01-29T02:03:07.289Z,15.93
2023-01-29T02:05:53.746Z,12.30
2023-01-29T02:08:48.354Z,12.15
2023-01-29T02:11:15.165Z,11.48
2023-01-29T02:13:42.727Z,12.13
2023-01-29T02:16:09.427Z,14.95
2023-01-29T02:18:38.145Z,14.15
2023-01-29T02:21:25.315Z,11.98
2023-01-29T02:24:00.423Z,11.68
2023-01-29T02:26:30.852Z,12.48
2023-01-29T02:29:41.581Z,11.45
2023-01-29T02:32:32.759Z,14.38
2023-01-29T02:35:32.025Z,13.70
2023-01-29T02:38:17.962Z,11.82
2023-01-29T02:40:54.132Z,13.13
2023-01-29T02:43:44.131Z,12.20
2023-01-29T02:46:32.444Z,11.85
2023-01-29T02:49:17.079Z,11.93
2023-01-29T02:51:51.709Z,9.75
2023-01-29T02:54:27.681Z,11.23
2023-01-29T02:56:58.576Z,12.30
2023-01-29T02:59:49.559Z,13.48
2023-01-29T03:02:22.070Z,11.77
2023-01-29T03:04:57.039Z,11.18
2023-01-29T03:07:44.616Z,11.73
2023-01-29T03:10:26.322Z,9.15
2023-01-29T03:13:04.032Z,11.75
2023-01-29T03:15:39.007Z,10.82
2023-01-29T03:18:17.499Z,9.23
2023-01-29T03:20:53.626Z,11.55
2023-01-29T03:23:46.868Z,9.52
2023-01-29T03:26:34.991Z,9.63
2023-01-29T03:29:22.426Z,10.85
2023-01-29T03:32:06.923Z,11.02
2023-01-29T03:35:04.025Z,10.52
2023-01-29T03:37:47.347Z,9.25
2023-01-29T03:40:15.860Z,10.75
2023-01-29T03:42:54.703Z,14.25
2023-01-29T03:46:03.486Z,9.80
2023-01-29T03:48:58.104Z,10.68
2023-01-29T03:51:58.369Z,10.35
2023-01-29T03:54:34.176Z,10.23
2023-01-29T03:57:07.529Z,7.70
2023-01-29T04:00:08.176Z,9.98
2023-01-29T04:03:12.603Z,9.13
2023-01-29T04:05:53.048Z,10.95
2023-01-29T04:08:29.148Z,8.00
2023-01-29T04:11:00.170Z,12.18
2023-01-29T04:13:27.601Z,10.73
2023-01-29T04:15:58.084Z,8.75
2023-01-29T04:18:25.501Z,9.52
2023-01-29T04:20:52.779Z,9.75
2023-01-29T04:23:22.127Z,11.40
2023-01-29T04:25:58.859Z,10.32
2023-01-29T04:28:51.136Z,10.35
2023-01-29T04:31:19.731Z,9.25
2023-01-29T04:34:17.810Z,11.63
2023-01-29T04:37:20.604Z,12.32
2023-01-29T04:40:13.988Z,9.80
2023-01-29T04:42:49.560Z,8.65
2023-01-29T04:45:35.586Z,10.63
2023-01-29T04:48:02.272Z,8.35
2023-01-29T04:50:33.033Z,11.23
2023-01-29T04:53:23.804Z,9.57
2023-01-29T04:55:59.233Z,10.98
2023-01-29T04:58:50.814Z,9.25
2023-01-29T05:01:19.941Z,8.60
2023-01-29T05:03:52.186Z,9.30
2023-01-29T05:06:20.398Z,8.52
2023-01-29T05:08:49.045Z,8.45
2023-01-29T05:11:18.078Z,8.30
2023-01-29T05:13:45.654Z,11.65
2023-01-29T05:16:41.952Z,9.50
2023-01-29T05:19:13.971Z,9.25
2023-01-29T05:21:44.156Z,8.77
2023-01-29T05:24:23.154Z,9.05
2023-01-29T05:27:11.315Z,8.57
2023-01-29T05:29:41.085Z,9.48
2023-01-29T05:32:07.781Z,10.32
2023-01-29T05:34:34.645Z,15.73
2023-01-29T05:37:01.572Z,14.77
2023-01-29T05:39:28.444Z,18.90
2023-01-29T05:41:55.200Z,14.23
2023-01-29T05:44:21.983Z,12.30
2023-01-29T05:46:49.781Z,17.85
2023-01-29T05:49:17.949Z,11.40
2023-01-29T05:51:44.723Z,8.82
2023-01-29T05:54:12.633Z,8.63
2023-01-29T05:56:40.175Z,8.30
2023-01-29T05:59:07.369Z,9.43
2023-01-29T06:01:34.160Z,10.18
2023-01-29T06:04:00.858Z,10.00
2023-01-29T06:06:27.707Z,9.30
2023-01-29T06:08:55.462Z,6.97
2023-01-29T06:11:22.198Z,9.85
2023-01-29T06:13:49.201Z,7.10
2023-01-29T06:16:16.003Z,8.80
2023-01-29T06:18:43.359Z,12.75
2023-01-29T06:21:13.024Z,8.15
2023-01-29T06:23:40.133Z,10.05
2023-01-29T06:26:10.742Z,9.73
2023-01-29T06:28:37.508Z,10.00
2023-01-29T06:31:23.380Z,9.57
2023-01-29T06:33:52.707Z,9.02
2023-01-29T06:36:19.435Z,17.05
2023-01-29T06:38:47.231Z,15.38
2023-01-29T06:41:17.728Z,11.13
2023-01-29T06:43:45.538Z,9.18
2023-01-29T06:46:12.350Z,8.30
2023-01-29T06:48:39.325Z,9.63
2023-01-29T06:51:08.420Z,19.40
2023-01-29T06:53:36.632Z,21.10
2023-01-29T06:56:04.348Z,8.07
2023-01-29T06:58:31.235Z,9.25
2023-01-29T07:01:09.776Z,20.60
2023-01-29T07:03:37.248Z,17.08
2023-01-29T07:06:04.846Z,11.65
2023-01-29T07:08:31.559Z,41.42
2023-01-29T07:11:01.789Z,14.25
2023-01-29T07:13:28.875Z,10.38
2023-01-29T07:15:59.851Z,9.43
2023-01-29T07:18:27.432Z,8.88
2023-01-29T07:20:54.683Z,9.50
2023-01-29T07:23:21.740Z,8.20
2023-01-29T07:25:49.876Z,6.68
2023-01-29T07:28:17.866Z,6.35
2023-01-29T07:30:44.825Z,7.70
2023-01-29T07:33:12.946Z,8.38
2023-01-29T07:35:41.982Z,9.30
2023-01-29T07:38:10.813Z,7.75
2023-01-29T07:40:37.731Z,8.75
2023-01-29T07:43:07.096Z,6.82
2023-01-29T07:45:35.748Z,10.95
2023-01-29T07:48:04.241Z,8.15
2023-01-29T07:50:31.829Z,9.65
2023-01-29T07:52:58.763Z,10.73
2023-01-29T07:55:25.599Z,8.40
2023-01-29T07:58:00.138Z,9.95
2023-01-29T08:00:27.955Z,12.32
2023-01-29T08:03:01.258Z,12.02
2023-01-29T08:05:27.964Z,9.75
2023-01-29T08:08:06.031Z,9.43
2023-01-29T08:10:37.498Z,9.93
2023-01-29T08:13:05.472Z,11.65
2023-01-29T08:15:33.566Z,11.88
2023-01-29T08:18:02.259Z,8.75
2023-01-29T08:20:29.268Z,14.23
2023-01-29T08:23:03.670Z,13.52
2023-01-29T08:25:30.756Z,9.57
2023-01-29T08:27:58.410Z,10.32
2023-01-29T08:30:29.940Z,12.18
2023-01-29T08:32:56.818Z,13.60
2023-01-29T08:35:24.036Z,10.55
2023-01-29T08:37:59.483Z,18.50
2023-01-29T08:40:27.945Z,10.45
2023-01-29T08:43:02.981Z,10.38
2023-01-29T08:45:34.956Z,12.57
2023-01-29T08:48:02.448Z,12.43
2023-01-29T08:50:30.739Z,9.23
2023-01-29T08:52:59.531Z,11.90
2023-01-29T08:55:27.093Z,15.70
2023-01-29T08:57:53.889Z,11.45
2023-01-29T09:00:21.156Z,13.55
2023-01-29T09:02:47.920Z,13.57
2023-01-29T09:05:15.558Z,14.20
2023-01-29T09:07:42.364Z,12.50
2023-01-29T09:10:09.715Z,13.13
2023-01-29T09:12:36.401Z,12.00
2023-01-29T09:15:03.930Z,11.82
2023-01-29T09:17:30.746Z,10.75
2023-01-29T09:19:58.676Z,13.40
2023-01-29T09:22:25.482Z,13.68
2023-01-29T09:24:52.297Z,13.88
2023-01-29T09:27:19.023Z,15.38
2023-01-29T09:29:45.751Z,14.73
2023-01-29T09:32:12.643Z,13.75
2023-01-29T09:34:39.421Z,12.52
2023-01-29T09:37:06.612Z,11.90
2023-01-29T09:39:33.841Z,17.33
2023-01-29T09:42:19.646Z,15.52
2023-01-29T09:45:03.799Z,10.65
2023-01-29T09:47:34.469Z,13.48
2023-01-29T09:50:08.032Z,12.77
2023-01-29T09:52:43.130Z,13.10
2023-01-29T09:55:18.678Z,14.00
2023-01-29T09:57:58.215Z,14.10
2023-01-29T10:00:30.634Z,12.13
2023-01-29T10:03:13.946Z,15.80
2023-01-29T10:06:03.900Z,17.98
2023-01-29T10:08:56.858Z,18.10
2023-01-29T10:11:53.677Z,15.43
2023-01-29T10:14:29.439Z,15.70
2023-01-29T10:17:07.818Z,11.32
2023-01-29T10:19:57.542Z,11.35
2023-01-29T10:23:00.318Z,18.02
2023-01-29T10:25:27.549Z,21.48
2023-01-29T10:27:57.199Z,9.85
2023-01-29T10:30:28.586Z,10.85
2023-01-29T10:32:59.481Z,10.38
2023-01-29T10:35:41.317Z,12.82
2023-01-29T10:38:34.074Z,11.13
2023-01-29T10:41:22.328Z,10.70
2023-01-29T10:44:13.823Z,8.65
2023-01-29T10:47:19.760Z,9.55
2023-01-29T10:50:25.572Z,9.25
2023-01-29T10:53:23.131Z,9.98
2023-01-29T10:56:22.788Z,8.90
2023-01-29T10:59:31.899Z,8.95
2023-01-29T11:02:00.269Z,7.78
2023-01-29T11:04:29.650Z,7.65
2023-01-29T11:06:56.548Z,7.95
2023-01-29T11:09:55.251Z,8.68
2023-01-29T11:12:30.821Z,9.73
2023-01-29T11:15:26.570Z,13.70
2023-01-29T11:18:13.594Z,8.63
2023-01-29T11:20:41.991Z,9.80
2023-01-29T11:23:30.407Z,9.25
2023-01-29T11:25:58.639Z,8.80
2023-01-29T11:28:38.828Z,13.15
2023-01-29T11:31:26.186Z,7.88
2023-01-29T11:34:03.054Z,8.77
2023-01-29T11:36:38.200Z,9.25
2023-01-29T11:39:24.695Z,7.03
2023-01-29T11:42:00.400Z,15.75
2023-01-29T11:44:37.046Z,8.25
2023-01-29T11:47:27.761Z,14.38
2023-01-29T11:49:57.131Z,15.20
2023-01-29T11:52:35.046Z,12.10
2023-01-29T11:55:13.832Z,8.00
2023-01-29T11:57:51.048Z,10.95
2023-01-29T12:00:18.292Z,10.73
2023-01-29T12:02:48.432Z,8.82
2023-01-29T12:05:18.623Z,10.10
2023-01-29T12:07:49.080Z,11.90
2023-01-29T12:10:40.896Z,12.02
2023-01-29T12:13:10.846Z,10.40
2023-01-29T12:15:42.306Z,7.88
2023-01-29T12:18:30.553Z,9.90
2023-01-29T12:21:03.580Z,8.32
2023-01-29T12:23:36.636Z,9.75
2023-01-29T12:26:12.853Z,11.38
2023-01-29T12:28:42.872Z,10.73
2023-01-29T12:31:24.154Z,8.57
2023-01-29T12:34:24.742Z,10.50
2023-01-29T12:37:13.625Z,10.18
2023-01-29T12:39:40.446Z,8.38
2023-01-29T12:42:40.573Z,9.88
2023-01-29T12:45:10.975Z,7.55
2023-01-29T12:47:43.974Z,8.95
2023-01-29T12:50:20.113Z,10.38
2023-01-29T12:52:49.494Z,9.38
2023-01-29T12:55:34.704Z,10.43
2023-01-29T12:58:11.102Z,10.57
2023-01-29T13:00:43.495Z,10.35
2023-01-29T13:03:25.262Z,8.95
2023-01-29T13:06:11.636Z,9.23
2023-01-29T13:08:55.584Z,10.43
2023-01-29T13:11:37.003Z,8.88
2023-01-29T13:14:12.602Z,9.40
2023-01-29T13:16:44.209Z,10.23
2023-01-29T13:19:27.534Z,11.10
2023-01-29T13:21:59.285Z,10.10
2023-01-29T13:24:31.481Z,9.60
2023-01-29T13:26:58.206Z,9.48
2023-01-29T13:29:30.111Z,10.57
2023-01-29T13:31:59.317Z,8.85
2023-01-29T13:34:43.945Z,11.55
2023-01-29T13:37:30.990Z,12.07
2023-01-29T13:39:59.601Z,10.10
2023-01-29T13:42:35.123Z,9.52
2023-01-29T13:45:05.243Z,11.68
2023-01-29T13:47:38.595Z,13.38
2023-01-29T13:50:34.715Z,13.00
2023-01-29T13:53:03.430Z,9.55
2023-01-29T13:55:36.025Z,13.45
2023-01-29T13:58:16.573Z,7.40
2023-01-29T14:00:43.239Z,9.80
2023-01-29T14:03:11.761Z,9.30
2023-01-29T14:05:39.964Z,7.63
2023-01-29T14:08:09.458Z,8.63
2023-01-29T14:10:37.848Z,12.20
2023-01-29T14:13:04.506Z,9.57
2023-01-29T14:15:33.023Z,11.75
2023-01-29T14:18:08.990Z,10.20
2023-01-29T14:20:49.623Z,8.43
2023-01-29T14:23:30.572Z,8.93
2023-01-29T14:26:00.763Z,10.60
2023-01-29T14:28:31.204Z,11.32
2023-01-29T14:30:58.365Z,9.82
2023-01-29T14:33:35.278Z,9.10
2023-01-29T14:36:05.910Z,10.05
2023-01-29T14:38:34.007Z,11.45
2023-01-29T14:41:33.309Z,11.23
2023-01-29T14:44:37.705Z,21.40
2023-01-29T14:47:04.862Z,13.20
2023-01-29T14:49:54.636Z,8.70
2023-01-29T14:52:37.534Z,13.07
2023-01-29T14:55:09.857Z,8.70
2023-01-29T14:57:38.737Z,9.95
2023-01-29T15:00:24.112Z,8.55
2023-01-29T15:03:01.353Z,9.55
2023-01-29T15:05:35.903Z,9.18
2023-01-29T15:08:16.198Z,12.98
2023-01-29T15:11:13.962Z,8.27
2023-01-29T15:14:12.853Z,9.27
2023-01-29T15:17:00.539Z,7.70
2023-01-29T15:19:44.654Z,10.68
2023-01-29T15:22:21.773Z,10.52
2023-01-29T15:25:07.351Z,9.43
2023-01-29T15:27:34.422Z,20.67
2023-01-29T15:30:03.770Z,11.82
2023-01-29T15:32:39.152Z,7.32
2023-01-29T15:35:10.020Z,11.40
2023-01-29T15:37:37.377Z,10.77
2023-01-29T15:40:12.173Z,8.00
2023-01-29T15:42:46.526Z,10.68
2023-01-29T15:45:45.729Z,11.98
2023-01-29T15:48:18.220Z,10.82
2023-01-29T15:50:45.767Z,18.73
2023-01-29T15:53:28.774Z,34.22
2023-01-29T15:55:58.141Z,11.30
2023-01-29T15:58:30.236Z,7.68
2023-01-29T16:00:59.040Z,10.55
2023-01-29T16:03:28.357Z,14.95
2023-01-29T16:05:55.803Z,10.35
2023-01-29T16:08:24.815Z,11.07
2023-01-29T16:11:00.707Z,11.90
2023-01-29T16:13:33.595Z,11.15
2023-01-29T16:16:20.812Z,10.93
2023-01-29T16:18:59.517Z,15.10
2023-01-29T16:21:37.483Z,11.55
2023-01-29T16:24:13.903Z,14.85
2023-01-29T16:26:45.283Z,23.02
2023-01-29T16:29:23.766Z,23.95
2023-01-29T16:32:00.599Z,18.35
2023-01-29T16:34:37.860Z,14.52
2023-01-29T16:37:21.199Z,15.85
2023-01-29T16:39:49.165Z,12.50
2023-01-29T16:42:20.041Z,12.27
2023-01-29T16:44:55.718Z,13.95
2023-01-29T16:47:25.345Z,13.43
2023-01-29T16:49:55.110Z,15.02
2023-01-29T16:52:31.492Z,8.65
2023-01-29T16:55:11.494Z,9.15
2023-01-29T16:57:40.258Z,8.48
2023-01-29T17:00:18.360Z,8.77
2023-01-29T17:02:45.271Z,10.70
2023-01-29T17:05:22.254Z,10.90
2023-01-29T17:07:49.609Z,14.10
2023-01-29T17:10:19.383Z,14.15
2023-01-29T17:12:56.271Z,11.73
2023-01-29T17:15:46.004Z,14.63
2023-01-29T17:18:21.454Z,11.85
2023-01-29T17:20:49.329Z,8.77
2023-01-29T17:23:16.434Z,9.40
2023-01-29T17:25:43.867Z,11.38
2023-01-29T17:28:16.170Z,10.20
2023-01-29T17:30:46.441Z,12.35
2023-01-29T17:33:22.606Z,10.05
2023-01-29T17:35:50.229Z,17.42
2023-01-29T17:38:26.029Z,29.38
2023-01-29T17:41:00.017Z,37.42
2023-01-29T17:43:26.961Z,27.10
2023-01-29T17:45:53.757Z,18.73
2023-01-29T17:48:25.958Z,16.88
2023-01-29T17:50:55.290Z,17.13
2023-01-29T17:53:24.866Z,10.55
2023-01-29T17:55:53.371Z,9.00
2023-01-29T17:58:26.784Z,12.38
2023-01-29T18:00:54.767Z,9.68
2023-01-29T18:03:22.505Z,12.40
2023-01-29T18:05:50.344Z,41.63
2023-01-29T18:08:30.707Z,48.35
2023-01-29T18:10:57.734Z,66.70
2023-01-29T18:13:24.890Z,66.10
2023-01-29T18:15:51.684Z,82.22
2023-01-29T18:18:23.750Z,57.30
2023-01-29T18:20:50.922Z,54.17
2023-01-29T18:23:17.784Z,40.38
2023-01-29T18:25:44.828Z,30.70
2023-01-29T18:28:17.956Z,39.88
2023-01-29T18:30:47.176Z,41.95
2023-01-29T18:33:14.789Z,18.10
2023-01-29T18:35:43.173Z,16.92
2023-01-29T18:38:09.903Z,16.05
2023-01-29T18:40:37.348Z,12.75
2023-01-29T18:43:04.244Z,14.48
2023-01-29T18:45:31.542Z,14.18
2023-01-29T18:47:58.486Z,14.90
2023-01-29T18:50:26.412Z,11.82
2023-01-29T18:52:54.304Z,13.95
2023-01-29T18:55:24.471Z,9.02
2023-01-29T18:58:28.591Z,16.90
2023-01-29T19:00:42.195Z,14.65
2023-01-29T19:03:10.040Z,14.90
2023-01-29T19:05:36.750Z,15.38
2023-01-29T19:08:05.223Z,11.88
2023-01-29T19:10:32.479Z,11.20
2023-01-29T19:12:59.317Z,13.13
2023-01-29T19:15:26.127Z,15.68
2023-01-29T19:17:53.201Z,16.52
2023-01-29T19:20:20.218Z,20.42
2023-01-29T19:22:46.953Z,29.83
2023-01-29T19:25:13.766Z,37.83
2023-01-29T19:27:40.608Z,40.20
2023-01-29T19:30:08.617Z,41.33
2023-01-29T19:32:35.523Z,37.65
2023-01-29T19:35:02.284Z,24.20
2023-01-29T19:37:30.895Z,25.80
2023-01-29T19:39:57.652Z,32.60
2023-01-29T19:42:24.481Z,32.40
2023-01-29T19:44:52.344Z,40.13
2023-01-29T19:47:19.284Z,47.22
2023-01-29T19:49:46.166Z,37.08
2023-01-29T19:52:51.153Z,29.70
2023-01-29T19:55:21.050Z,35.95
2023-01-29T19:57:48.393Z,32.35
2023-01-29T20:00:17.433Z,21.02
2023-01-29T20:02:44.392Z,25.38
2023-01-29T20:05:13.115Z,25.65
2023-01-29T20:07:42.446Z,20.50
2023-01-29T20:10:11.562Z,24.50
2023-01-29T20:12:39.141Z,21.70
2023-01-29T20:15:07.268Z,21.48
2023-01-29T20:17:34.177Z,24.38
2023-01-29T20:20:00.981Z,23.90
2023-01-29T20:22:29.241Z,30.85
2023-01-29T20:24:56.220Z,35.67
2023-01-29T20:27:23.111Z,36.60
2023-01-29T20:29:52.466Z,34.00
2023-01-29T20:32:19.296Z,23.17
2023-01-29T20:34:49.715Z,23.67
2023-01-29T20:37:16.458Z,28.77
2023-01-29T20:39:43.181Z,34.33
2023-01-29T20:42:09.947Z,34.83
2023-01-29T20:44:36.961Z,37.58
2023-01-29T20:47:04.404Z,33.22
2023-01-29T20:49:31.785Z,25.13
2023-01-29T20:52:01.382Z,20.25
2023-01-29T20:54:29.988Z,20.45
2023-01-29T20:56:57.170Z,18.67
2023-01-29T20:59:23.953Z,16.23
2023-01-29T21:01:50.784Z,18.80
2023-01-29T21:04:17.662Z,17.52
2023-01-29T21:06:44.469Z,18.23
2023-01-29T21:09:11.275Z,17.00
2023-01-29T21:11:38.095Z,19.27
2023-01-29T21:14:04.982Z,23.95
2023-01-29T21:16:31.819Z,21.45
2023-01-29T21:18:59.344Z,24.90
2023-01-29T21:21:26.735Z,19.90
2023-01-29T21:23:53.900Z,22.33
2023-01-29T21:26:20.975Z,17.50
2023-01-29T21:28:47.857Z,21.42
2023-01-29T21:31:16.831Z,19.67
2023-01-29T21:33:43.923Z,17.00
2023-01-29T21:36:11.309Z,19.23
2023-01-29T21:38:38.723Z,20.02
2023-01-29T21:41:08.955Z,16.45
2023-01-29T21:43:36.246Z,20.00
2023-01-29T21:46:05.092Z,20.27
2023-01-29T21:48:32.094Z,19.10
2023-01-29T21:50:58.919Z,19.42
2023-01-29T21:53:25.724Z,22.85
2023-01-29T21:55:52.394Z,21.25
2023-01-29T21:58:20.616Z,20.83
2023-01-29T22:00:48.803Z,22.20
2023-01-29T22:03:15.933Z,20.85
2023-01-29T22:05:42.777Z,19.70
2023-01-29T22:08:09.886Z,24.52
2023-01-29T22:10:37.627Z,22.83
2023-01-29T22:13:04.627Z,21.67
2023-01-29T22:15:31.495Z,16.73
2023-01-29T22:17:59.549Z,21.25
2023-01-29T22:20:30.228Z,23.48
2023-01-29T22:23:00.561Z,29.10
2023-01-29T22:25:27.884Z,24.95
2023-01-29T22:27:54.656Z,21.17
2023-01-29T22:30:23.288Z,24.88
2023-01-29T22:32:50.655Z,27.65
2023-01-29T22:35:17.839Z,23.30
2023-01-29T22:37:45.139Z,20.52
2023-01-29T22:40:12.990Z,24.45
2023-01-29T22:42:39.987Z,26.10
2023-01-29T22:45:08.057Z,22.38
2023-01-29T22:47:34.825Z,25.88
2023-01-29T22:50:01.687Z,22.23
2023-01-29T22:52:28.418Z,25.10
2023-01-29T22:54:55.218Z,27.35
2023-01-29T22:57:22.195Z,22.20
2023-01-29T22:59:48.935Z,25.73
2023-01-29T23:02:15.624Z,27.48
2023-01-29T23:04:42.479Z,25.35
2023-01-29T23:07:09.372Z,29.10
2023-01-29T23:09:36.049Z,21.13
2023-01-29T23:12:02.787Z,21.23
2023-01-29T23:14:29.541Z,25.85
2023-01-29T23:16:56.320Z,25.90
2023-01-29T23:19:23.092Z,23.08
2023-01-29T23:21:49.810Z,27.23
2023-01-29T23:24:16.843Z,24.92
2023-01-29T23:27:02.031Z,21.58
2023-01-29T23:29:28.722Z,20.33
2023-01-29T23:31:55.485Z,20.73
2023-01-29T23:34:22.391Z,18.88
2023-01-29T23:36:49.374Z,18.27
2023-01-29T23:39:16.839Z,24.83
2023-01-29T23:41:43.900Z,24.00
2023-01-29T23:44:10.720Z,22.45
2023-01-29T23:46:37.494Z,22.63
2023-01-29T23:49:04.538Z,20.42
2023-01-29T23:51:31.342Z,22.88
2023-01-29T23:53:58.284Z,24.60
2023-01-29T23:56:25.109Z,22.02
2023-01-29T23:58:56.128Z,24.13
